sensor_id;sensor_type;location;lat;lon;timestamp;pressure;altitude;pressure_sealevel;temperature;humidity
21960;BME280;11144;43.030;25.108;2023-03-15T00:00:24;98048.06;;;4.47;100.00
21960;BME280;11144;43.030;25.108;2023-03-15T00:01:57;98043.78;;;4.45;100.00
21960;BME280;11144;43.030;25.108;2023-03-15T00:03:31;98037.13;;;4.35;100.00
21960;BME280;11144;43.030;25.108;2023-03-15T00:05:09;98039.19;;;4.25;100.00
21960;BME280;11144;43.030;25.108;2023-03-15T00:06:44;98038.56;;;4.17;100.00
21960;BME280;11144;43.030;25.108;2023-03-15T00:08:17;98040.66;;;4.06;100.00
21960;BME280;11144;43.030;25.108;2023-03-15T00:09:50;98037.44;;;3.98;100.00
21960;BME280;11144;43.030;25.108;2023-03-15T00:11:24;98040.19;;;3.94;100.00
21960;BME280;11144;43.030;25.108;2023-03-15T00:12:56;98034.88;;;3.97;100.00
21960;BME280;11144;43.030;25.108;2023-03-15T00:14:29;98039.19;;;3.98;100.00
21960;BME280;11144;43.030;25.108;2023-03-15T00:16:02;98038.22;;;4.00;100.00
21960;BME280;11144;43.030;25.108;2023-03-15T00:17:36;98040.84;;;4.00;100.00
21960;BME280;11144;43.030;25.108;2023-03-15T00:19:11;98045.19;;;4.01;100.00
21960;BME280;11144;43.030;25.108;2023-03-15T00:20:44;98044.19;;;4.05;100.00
21960;BME280;11144;43.030;25.108;2023-03-15T00:22:17;98042.19;;;4.13;100.00
21960;BME280;11144;43.030;25.108;2023-03-15T00:23:54;98041.84;;;4.24;100.00
21960;BME280;11144;43.030;25.108;2023-03-15T00:25:28;98047.81;;;4.29;100.00
21960;BME280;11144;43.030;25.108;2023-03-15T00:27:01;98041.72;;;4.28;100.00
21960;BME280;11144;43.030;25.108;2023-03-15T00:28:35;98037.34;;;4.29;100.00
21960;BME280;11144;43.030;25.108;2023-03-15T00:30:08;98041.22;;;4.43;100.00
21960;BME280;11144;43.030;25.108;2023-03-15T00:31:42;98038.72;;;4.39;100.00
21960;BME280;11144;43.030;25.108;2023-03-15T00:33:15;98040.00;;;4.27;100.00
21960;BME280;11144;43.030;25.108;2023-03-15T00:34:50;98026.41;;;4.16;100.00
21960;BME280;11144;43.030;25.108;2023-03-15T00:36:25;98024.81;;;4.12;100.00
21960;BME280;11144;43.030;25.108;2023-03-15T00:37:59;98024.88;;;4.09;100.00
21960;BME280;11144;43.030;25.108;2023-03-15T00:39:32;98023.06;;;4.11;100.00
21960;BME280;11144;43.030;25.108;2023-03-15T00:41:13;98021.28;;;4.13;100.00
21960;BME280;11144;43.030;25.108;2023-03-15T00:42:47;98020.41;;;4.13;100.00
21960;BME280;11144;43.030;25.108;2023-03-15T00:44:22;98016.13;;;4.10;100.00
21960;BME280;11144;43.030;25.108;2023-03-15T00:45:56;98019.47;;;4.15;100.00
21960;BME280;11144;43.030;25.108;2023-03-15T00:47:29;98015.84;;;4.19;100.00
21960;BME280;11144;43.030;25.108;2023-03-15T00:49:03;98007.00;;;4.23;100.00
21960;BME280;11144;43.030;25.108;2023-03-15T00:50:38;98008.81;;;4.21;100.00
21960;BME280;11144;43.030;25.108;2023-03-15T00:52:11;98003.78;;;4.15;100.00
21960;BME280;11144;43.030;25.108;2023-03-15T00:53:45;97998.75;;;4.09;100.00
21960;BME280;11144;43.030;25.108;2023-03-15T00:55:19;97998.91;;;4.03;100.00
21960;BME280;11144;43.030;25.108;2023-03-15T00:56:53;97997.31;;;3.99;100.00
21960;BME280;11144;43.030;25.108;2023-03-15T00:58:26;97995.44;;;4.04;100.00
21960;BME280;11144;43.030;25.108;2023-03-15T01:00:00;97994.50;;;4.05;100.00
21960;BME280;11144;43.030;25.108;2023-03-15T01:01:39;97981.53;;;4.02;100.00
21960;BME280;11144;43.030;25.108;2023-03-15T01:03:15;97986.94;;;3.96;100.00
21960;BME280;11144;43.030;25.108;2023-03-15T01:04:49;97976.50;;;3.96;100.00
21960;BME280;11144;43.030;25.108;2023-03-15T01:06:26;97980.63;;;4.03;100.00
21960;BME280;11144;43.030;25.108;2023-03-15T01:07:59;97979.84;;;4.01;100.00
21960;BME280;11144;43.030;25.108;2023-03-15T01:09:34;97973.00;;;3.97;100.00
21960;BME280;11144;43.030;25.108;2023-03-15T01:11:09;97971.16;;;3.99;100.00
21960;BME280;11144;43.030;25.108;2023-03-15T01:12:43;97973.56;;;3.79;100.00
21960;BME280;11144;43.030;25.108;2023-03-15T01:14:17;97970.91;;;3.53;100.00
21960;BME280;11144;43.030;25.108;2023-03-15T01:15:50;97959.66;;;3.49;100.00
21960;BME280;11144;43.030;25.108;2023-03-15T01:17:24;97967.47;;;3.51;100.00
21960;BME280;11144;43.030;25.108;2023-03-15T01:18:57;97965.81;;;3.48;100.00
21960;BME280;11144;43.030;25.108;2023-03-15T01:20:31;97974.50;;;3.49;100.00
21960;BME280;11144;43.030;25.108;2023-03-15T01:22:06;97966.63;;;3.50;100.00
21960;BME280;11144;43.030;25.108;2023-03-15T01:23:39;97973.50;;;3.53;100.00
21960;BME280;11144;43.030;25.108;2023-03-15T01:25:13;97965.75;;;3.50;100.00
21960;BME280;11144;43.030;25.108;2023-03-15T01:26:46;97969.28;;;3.49;100.00
21960;BME280;11144;43.030;25.108;2023-03-15T01:28:20;97966.72;;;3.47;100.00
21960;BME280;11144;43.030;25.108;2023-03-15T01:29:53;97967.53;;;3.48;100.00
21960;BME280;11144;43.030;25.108;2023-03-15T01:31:33;97958.09;;;3.44;100.00
21960;BME280;11144;43.030;25.108;2023-03-15T01:33:26;97960.63;;;3.47;100.00
21960;BME280;11144;43.030;25.108;2023-03-15T01:35:00;97954.34;;;3.52;100.00
21960;BME280;11144;43.030;25.108;2023-03-15T01:36:33;97957.63;;;3.59;100.00
21960;BME280;11144;43.030;25.108;2023-03-15T01:38:08;97953.94;;;3.66;100.00
21960;BME280;11144;43.030;25.108;2023-03-15T01:39:42;97957.09;;;3.76;100.00
21960;BME280;11144;43.030;25.108;2023-03-15T01:41:15;97956.06;;;3.81;100.00
21960;BME280;11144;43.030;25.108;2023-03-15T01:42:50;97962.91;;;3.85;100.00
21960;BME280;11144;43.030;25.108;2023-03-15T01:44:23;97957.59;;;3.88;100.00
21960;BME280;11144;43.030;25.108;2023-03-15T01:46:06;97959.19;;;3.92;100.00
21960;BME280;11144;43.030;25.108;2023-03-15T01:47:46;97957.41;;;3.94;100.00
21960;BME280;11144;43.030;25.108;2023-03-15T01:49:22;97959.00;;;3.98;100.00
21960;BME280;11144;43.030;25.108;2023-03-15T01:50:59;97953.69;;;4.01;100.00
21960;BME280;11144;43.030;25.108;2023-03-15T01:52:36;97960.47;;;4.07;100.00
21960;BME280;11144;43.030;25.108;2023-03-15T01:54:17;97963.00;;;4.10;100.00
21960;BME280;11144;43.030;25.108;2023-03-15T01:55:52;97967.56;;;4.03;100.00
21960;BME280;11144;43.030;25.108;2023-03-15T01:57:40;97962.72;;;3.91;100.00
21960;BME280;11144;43.030;25.108;2023-03-15T01:59:18;97955.09;;;3.84;100.00
21960;BME280;11144;43.030;25.108;2023-03-15T02:00:53;97961.97;;;3.88;100.00
21960;BME280;11144;43.030;25.108;2023-03-15T02:02:27;97960.16;;;3.90;100.00
21960;BME280;11144;43.030;25.108;2023-03-15T02:04:06;97959.19;;;3.92;100.00
21960;BME280;11144;43.030;25.108;2023-03-15T02:05:47;97961.72;;;3.95;100.00
21960;BME280;11144;43.030;25.108;2023-03-15T02:07:46;97964.34;;;3.95;100.00
21960;BME280;11144;43.030;25.108;2023-03-15T02:09:31;97947.34;;;3.82;100.00
21960;BME280;11144;43.030;25.108;2023-03-15T02:11:07;97959.09;;;3.95;100.00
21960;BME280;11144;43.030;25.108;2023-03-15T02:12:42;97965.25;;;3.94;100.00
21960;BME280;11144;43.030;25.108;2023-03-15T02:14:17;97957.50;;;3.91;100.00
21960;BME280;11144;43.030;25.108;2023-03-15T02:15:51;97965.34;;;3.91;100.00
21960;BME280;11144;43.030;25.108;2023-03-15T02:17:42;97968.03;;;3.88;100.00
21960;BME280;11144;43.030;25.108;2023-03-15T02:19:26;97960.00;;;3.94;100.00
21960;BME280;11144;43.030;25.108;2023-03-15T02:21:12;97959.81;;;4.00;100.00
21960;BME280;11144;43.030;25.108;2023-03-15T02:22:51;97966.66;;;4.04;100.00
21960;BME280;11144;43.030;25.108;2023-03-15T02:24:32;97964.78;;;4.08;100.00
21960;BME280;11144;43.030;25.108;2023-03-15T02:26:16;97965.53;;;4.11;100.00
21960;BME280;11144;43.030;25.108;2023-03-15T02:27:52;97963.84;;;4.10;100.00
21960;BME280;11144;43.030;25.108;2023-03-15T02:29:27;97963.75;;;4.13;100.00
21960;BME280;11144;43.030;25.108;2023-03-15T02:31:01;97968.09;;;4.13;100.00
21960;BME280;11144;43.030;25.108;2023-03-15T02:32:34;97967.38;;;4.09;100.00
21960;BME280;11144;43.030;25.108;2023-03-15T02:34:07;97958.91;;;4.01;100.00
21960;BME280;11144;43.030;25.108;2023-03-15T02:35:40;97961.66;;;3.97;100.00
21960;BME280;11144;43.030;25.108;2023-03-15T02:37:13;97974.19;;;3.87;100.00
21960;BME280;11144;43.030;25.108;2023-03-15T02:38:48;97969.22;;;3.78;100.00
21960;BME280;11144;43.030;25.108;2023-03-15T02:40:23;97969.22;;;3.78;100.00
21960;BME280;11144;43.030;25.108;2023-03-15T02:41:58;97971.38;;;3.66;100.00
21960;BME280;11144;43.030;25.108;2023-03-15T02:43:34;97967.28;;;3.57;100.00
21960;BME280;11144;43.030;25.108;2023-03-15T02:45:09;97970.81;;;3.56;100.00
21960;BME280;11144;43.030;25.108;2023-03-15T02:46:45;97974.13;;;3.61;100.00
21960;BME280;11144;43.030;25.108;2023-03-15T02:48:23;97960.34;;;3.56;100.00
21960;BME280;11144;43.030;25.108;2023-03-15T02:49:57;97972.44;;;3.60;100.00
21960;BME280;11144;43.030;25.108;2023-03-15T02:51:32;97966.28;;;3.61;100.00
21960;BME280;11144;43.030;25.108;2023-03-15T02:53:06;97961.09;;;3.59;100.00
21960;BME280;11144;43.030;25.108;2023-03-15T02:54:39;97968.81;;;3.64;100.00
21960;BME280;11144;43.030;25.108;2023-03-15T02:56:15;97964.06;;;3.49;100.00
21960;BME280;11144;43.030;25.108;2023-03-15T02:57:48;97960.78;;;3.41;100.00
21960;BME280;11144;43.030;25.108;2023-03-15T02:59:24;97964.41;;;3.37;100.00
21960;BME280;11144;43.030;25.108;2023-03-15T03:00:56;97958.38;;;3.35;100.00
21960;BME280;11144;43.030;25.108;2023-03-15T03:02:29;97961.78;;;3.37;100.00
21960;BME280;11144;43.030;25.108;2023-03-15T03:04:02;97964.41;;;3.37;100.00
21960;BME280;11144;43.030;25.108;2023-03-15T03:05:35;97958.25;;;3.39;100.00
21960;BME280;11144;43.030;25.108;2023-03-15T03:07:09;97971.09;;;3.45;100.00
21960;BME280;11144;43.030;25.108;2023-03-15T03:08:49;97969.31;;;3.47;100.00
21960;BME280;11144;43.030;25.108;2023-03-15T03:10:24;97973.56;;;3.51;100.00
21960;BME280;11144;43.030;25.108;2023-03-15T03:12:00;97975.59;;;3.42;100.00
21960;BME280;11144;43.030;25.108;2023-03-15T03:13:36;97970.47;;;3.37;100.00
21960;BME280;11144;43.030;25.108;2023-03-15T03:15:11;97974.97;;;3.34;100.00
21960;BME280;11144;43.030;25.108;2023-03-15T03:16:45;97970.56;;;3.34;100.00
21960;BME280;11144;43.030;25.108;2023-03-15T03:18:22;97965.38;;;3.33;100.00
21960;BME280;11144;43.030;25.108;2023-03-15T03:19:55;97974.66;;;3.43;100.00
21960;BME280;11144;43.030;25.108;2023-03-15T03:21:36;97969.06;;;3.55;100.00
21960;BME280;11144;43.030;25.108;2023-03-15T03:23:09;97974.03;;;3.64;100.00
21960;BME280;11144;43.030;25.108;2023-03-15T03:24:43;97968.59;;;3.70;100.00
21960;BME280;11144;43.030;25.108;2023-03-15T03:26:19;97981.41;;;3.79;100.00
21960;BME280;11144;43.030;25.108;2023-03-15T03:27:54;97969.13;;;3.81;100.00
21960;BME280;11144;43.030;25.108;2023-03-15T03:29:30;97976.88;;;3.84;100.00
21960;BME280;11144;43.030;25.108;2023-03-15T03:31:15;97968.25;;;3.82;100.00
21960;BME280;11144;43.030;25.108;2023-03-15T03:32:49;97965.69;;;3.81;100.00
21960;BME280;11144;43.030;25.108;2023-03-15T03:34:24;97966.44;;;3.84;100.00
21960;BME280;11144;43.030;25.108;2023-03-15T03:36:01;97962.81;;;3.88;100.00
21960;BME280;11144;43.030;25.108;2023-03-15T03:37:35;97948.03;;;3.87;100.00
21960;BME280;11144;43.030;25.108;2023-03-15T03:39:18;97966.03;;;3.96;100.00
21960;BME280;11144;43.030;25.108;2023-03-15T03:40:51;97959.94;;;3.97;100.00
21960;BME280;11144;43.030;25.108;2023-03-15T03:42:25;97963.41;;;3.96;100.00
21960;BME280;11144;43.030;25.108;2023-03-15T03:43:57;97950.25;;;3.99;100.00
21960;BME280;11144;43.030;25.108;2023-03-15T03:45:30;97964.16;;;4.01;100.00
21960;BME280;11144;43.030;25.108;2023-03-15T03:47:06;97958.91;;;4.01;100.00
21960;BME280;11144;43.030;25.108;2023-03-15T03:48:39;97964.16;;;4.01;100.00
21960;BME280;11144;43.030;25.108;2023-03-15T03:50:12;97963.31;;;3.99;100.00
21960;BME280;11144;43.030;25.108;2023-03-15T03:51:45;97960.19;;;3.88;100.00
21960;BME280;11144;43.030;25.108;2023-03-15T03:53:18;97960.59;;;3.76;100.00
21960;BME280;11144;43.030;25.108;2023-03-15T03:54:52;97960.19;;;3.60;100.00
21960;BME280;11144;43.030;25.108;2023-03-15T03:56:24;97960.69;;;3.44;100.00
21960;BME280;11144;43.030;25.108;2023-03-15T03:57:58;97968.19;;;3.27;100.00
21960;BME280;11144;43.030;25.108;2023-03-15T04:00:05;97953.84;;;3.11;100.00
21960;BME280;11144;43.030;25.108;2023-03-15T04:01:45;97952.19;;;3.08;100.00
21960;BME280;11144;43.030;25.108;2023-03-15T04:03:20;97961.75;;;3.08;100.00
21960;BME280;11144;43.030;25.108;2023-03-15T04:05:06;97959.28;;;3.05;100.00
21960;BME280;11144;43.030;25.108;2023-03-15T04:06:40;97949.69;;;3.04;100.00
21960;BME280;11144;43.030;25.108;2023-03-15T04:08:19;97949.81;;;3.01;100.00
21960;BME280;11144;43.030;25.108;2023-03-15T04:09:54;97956.66;;;3.05;100.00
21960;BME280;11144;43.030;25.108;2023-03-15T04:11:27;97958.34;;;3.06;100.00
21960;BME280;11144;43.030;25.108;2023-03-15T04:13:03;97966.97;;;3.08;100.00
21960;BME280;11144;43.030;25.108;2023-03-15T04:14:37;97966.91;;;3.11;100.00
21960;BME280;11144;43.030;25.108;2023-03-15T04:16:12;97964.22;;;3.14;100.00
21960;BME280;11144;43.030;25.108;2023-03-15T04:17:58;97958.09;;;3.15;100.00
21960;BME280;11144;43.030;25.108;2023-03-15T04:19:44;97963.34;;;3.13;100.00
21960;BME280;11144;43.030;25.108;2023-03-15T04:21:21;97968.53;;;3.15;100.00
21960;BME280;11144;43.030;25.108;2023-03-15T04:22:58;97959.81;;;3.16;100.00
21960;BME280;11144;43.030;25.108;2023-03-15T04:24:50;97959.81;;;3.16;100.00
21960;BME280;11144;43.030;25.108;2023-03-15T04:26:44;97942.78;;;3.03;100.00
21960;BME280;11144;43.030;25.108;2023-03-15T04:28:28;97949.25;;;3.19;100.00
21960;BME280;11144;43.030;25.108;2023-03-15T04:30:11;97954.31;;;3.25;100.00
21960;BME280;11144;43.030;25.108;2023-03-15T04:32:04;97954.22;;;3.28;100.00
21960;BME280;11144;43.030;25.108;2023-03-15T04:33:52;97950.53;;;3.35;100.00
21960;BME280;11144;43.030;25.108;2023-03-15T04:35:54;97948.56;;;3.43;100.00
21960;BME280;11144;43.030;25.108;2023-03-15T04:37:47;97946.66;;;3.48;100.00
21960;BME280;11144;43.030;25.108;2023-03-15T04:39:39;97953.59;;;3.49;100.00
21960;BME280;11144;43.030;25.108;2023-03-15T04:41:32;97954.34;;;3.52;100.00
21960;BME280;11144;43.030;25.108;2023-03-15T04:43:26;97955.31;;;3.50;100.00
21960;BME280;11144;43.030;25.108;2023-03-15T04:45:32;97955.41;;;3.47;100.00
21960;BME280;11144;43.030;25.108;2023-03-15T04:47:35;97956.38;;;3.43;100.00
21960;BME280;11144;43.030;25.108;2023-03-15T04:49:32;97961.69;;;3.40;100.00
21960;BME280;11144;43.030;25.108;2023-03-15T04:51:30;97956.59;;;3.35;100.00
21960;BME280;11144;43.030;25.108;2023-03-15T04:53:34;97961.00;;;3.35;100.00
21960;BME280;11144;43.030;25.108;2023-03-15T04:55:28;97960.91;;;3.38;100.00
21960;BME280;11144;43.030;25.108;2023-03-15T04:57:40;97960.91;;;3.38;100.00
21960;BME280;11144;43.030;25.108;2023-03-15T04:59:33;97971.22;;;3.41;100.00
21960;BME280;11144;43.030;25.108;2023-03-15T05:01:27;97959.00;;;3.43;100.00
21960;BME280;11144;43.030;25.108;2023-03-15T05:03:23;97958.09;;;3.44;100.00
21960;BME280;11144;43.030;25.108;2023-03-15T05:05:21;97955.41;;;3.47;100.00
21960;BME280;11144;43.030;25.108;2023-03-15T05:07:14;97954.41;;;3.51;100.00
21960;BME280;11144;43.030;25.108;2023-03-15T05:09:17;97961.28;;;3.53;100.00
21960;BME280;11144;43.030;25.108;2023-03-15T05:11:00;97960.25;;;3.59;100.00
21960;BME280;11144;43.030;25.108;2023-03-15T05:12:56;97966.00;;;3.70;100.00
21960;BME280;11144;43.030;25.108;2023-03-15T05:14:40;97956.28;;;3.75;100.00
21960;BME280;11144;43.030;25.108;2023-03-15T05:16:32;97956.88;;;3.83;100.00
21960;BME280;11144;43.030;25.108;2023-03-15T05:18:34;97954.75;;;3.96;100.00
21960;BME280;11144;43.030;25.108;2023-03-15T05:20:16;97949.19;;;4.05;100.00
21960;BME280;11144;43.030;25.108;2023-03-15T05:22:08;97954.25;;;4.11;100.00
21960;BME280;11144;43.030;25.108;2023-03-15T05:24:09;97951.41;;;4.17;100.00
21960;BME280;11144;43.030;25.108;2023-03-15T05:26:01;97950.53;;;4.18;100.00
21960;BME280;11144;43.030;25.108;2023-03-15T05:27:54;97942.50;;;4.22;100.00
21960;BME280;11144;43.030;25.108;2023-03-15T05:29:38;97933.69;;;4.26;100.00
21960;BME280;11144;43.030;25.108;2023-03-15T05:31:26;97937.00;;;4.31;100.00
21960;BME280;11144;43.030;25.108;2023-03-15T05:33:14;97929.00;;;4.36;100.00
21960;BME280;11144;43.030;25.108;2023-03-15T05:35:14;97935.06;;;4.36;100.00
21960;BME280;11144;43.030;25.108;2023-03-15T05:37:08;97928.03;;;4.38;100.00
21960;BME280;11144;43.030;25.108;2023-03-15T05:39:20;97922.81;;;4.38;100.00
21960;BME280;11144;43.030;25.108;2023-03-15T05:41:12;97917.56;;;4.38;100.00
21960;BME280;11144;43.030;25.108;2023-03-15T05:42:49;97917.66;;;4.35;100.00
21960;BME280;11144;43.030;25.108;2023-03-15T05:44:50;97912.53;;;4.32;100.00
21960;BME280;11144;43.030;25.108;2023-03-15T05:46:49;97915.09;;;4.34;100.00
21960;BME280;11144;43.030;25.108;2023-03-15T05:48:57;97909.13;;;4.30;100.00
21960;BME280;11144;43.030;25.108;2023-03-15T05:50:40;97913.44;;;4.31;100.00
21960;BME280;11144;43.030;25.108;2023-03-15T05:52:35;97914.13;;;4.36;100.00
21960;BME280;11144;43.030;25.108;2023-03-15T05:54:30;97913.06;;;4.42;100.00
21960;BME280;11144;43.030;25.108;2023-03-15T05:56:21;97913.72;;;4.48;100.00
21960;BME280;11144;43.030;25.108;2023-03-15T05:58:13;97918.75;;;4.54;100.00
21960;BME280;11144;43.030;25.108;2023-03-15T06:00:06;97918.53;;;4.60;100.00
21960;BME280;11144;43.030;25.108;2023-03-15T06:01:46;97915.53;;;4.71;100.00
21960;BME280;11144;43.030;25.108;2023-03-15T06:03:29;97920.38;;;4.81;100.00
21960;BME280;11144;43.030;25.108;2023-03-15T06:05:12;97920.84;;;4.92;100.00
21960;BME280;11144;43.030;25.108;2023-03-15T06:06:45;97916.81;;;5.07;100.00
21960;BME280;11144;43.030;25.108;2023-03-15T06:08:19;97922.53;;;5.18;100.00
21960;BME280;11144;43.030;25.108;2023-03-15T06:09:55;97918.66;;;5.28;100.00
21960;BME280;11144;43.030;25.108;2023-03-15T06:11:29;97917.44;;;5.36;100.00
21960;BME280;11144;43.030;25.108;2023-03-15T06:13:03;97913.66;;;5.43;100.00
21960;BME280;11144;43.030;25.108;2023-03-15T06:14:38;97913.34;;;5.52;100.00
21960;BME280;11144;43.030;25.108;2023-03-15T06:16:12;97912.72;;;5.67;100.00
21960;BME280;11144;43.030;25.108;2023-03-15T06:17:49;97907.97;;;5.77;100.00
21960;BME280;11144;43.030;25.108;2023-03-15T06:19:23;97924.22;;;5.86;100.00
21960;BME280;11144;43.030;25.108;2023-03-15T06:20:58;97927.28;;;5.97;100.00
21960;BME280;11144;43.030;25.108;2023-03-15T06:22:32;97927.28;;;5.97;100.00
21960;BME280;11144;43.030;25.108;2023-03-15T06:24:12;97926.13;;;6.04;100.00
21960;BME280;11144;43.030;25.108;2023-03-15T06:25:47;97930.91;;;6.15;100.00
21960;BME280;11144;43.030;25.108;2023-03-15T06:27:21;97921.47;;;6.11;100.00
21960;BME280;11144;43.030;25.108;2023-03-15T06:28:58;97934.53;;;6.12;100.00
21960;BME280;11144;43.030;25.108;2023-03-15T06:30:31;97940.06;;;6.26;100.00
21960;BME280;11144;43.030;25.108;2023-03-15T06:32:05;97935.09;;;6.40;100.00
21960;BME280;11144;43.030;25.108;2023-03-15T06:33:41;97933.78;;;6.50;100.00
21960;BME280;11144;43.030;25.108;2023-03-15T06:35:15;97933.53;;;6.56;100.00
21960;BME280;11144;43.030;25.108;2023-03-15T06:36:48;97924.47;;;6.63;100.00
21960;BME280;11144;43.030;25.108;2023-03-15T06:38:23;97934.31;;;6.78;100.00
21960;BME280;11144;43.030;25.108;2023-03-15T06:39:56;97925.25;;;6.85;100.00
21960;BME280;11144;43.030;25.108;2023-03-15T06:41:32;97925.91;;;6.90;100.00
21960;BME280;11144;43.030;25.108;2023-03-15T06:43:12;97927.72;;;7.08;100.00
21960;BME280;11144;43.030;25.108;2023-03-15T06:44:50;97921.00;;;7.22;100.00
21960;BME280;11144;43.030;25.108;2023-03-15T06:46:24;97915.53;;;7.45;100.00
21960;BME280;11144;43.030;25.108;2023-03-15T06:47:59;97908.16;;;7.53;100.00
21960;BME280;11144;43.030;25.108;2023-03-15T06:49:32;97920.09;;;7.60;100.00
21960;BME280;11144;43.030;25.108;2023-03-15T06:51:06;97924.91;;;7.69;100.00
21960;BME280;11144;43.030;25.108;2023-03-15T06:52:40;97920.78;;;7.82;100.00
21960;BME280;11144;43.030;25.108;2023-03-15T06:54:13;97913.38;;;7.90;100.00
21960;BME280;11144;43.030;25.108;2023-03-15T06:55:47;97899.88;;;7.79;100.00
21960;BME280;11144;43.030;25.108;2023-03-15T06:57:24;97905.00;;;7.82;100.00
21960;BME280;11144;43.030;25.108;2023-03-15T06:58:57;97899.72;;;7.82;100.00
21960;BME280;11144;43.030;25.108;2023-03-15T07:00:30;97892.31;;;7.90;100.00
21960;BME280;11144;43.030;25.108;2023-03-15T07:02:03;97878.72;;;7.99;100.00
21960;BME280;11144;43.030;25.108;2023-03-15T07:03:36;97881.03;;;8.05;100.00
21960;BME280;11144;43.030;25.108;2023-03-15T07:05:10;97879.34;;;8.04;100.00
21960;BME280;11144;43.030;25.108;2023-03-15T07:06:43;97870.09;;;8.14;100.00
21960;BME280;11144;43.030;25.108;2023-03-15T07:08:16;97865.44;;;8.19;100.00
21960;BME280;11144;43.030;25.108;2023-03-15T07:09:49;97861.09;;;8.18;100.00
21960;BME280;11144;43.030;25.108;2023-03-15T07:11:26;97854.03;;;8.18;100.00
21960;BME280;11144;43.030;25.108;2023-03-15T07:13:00;97862.19;;;8.14;100.00
21960;BME280;11144;43.030;25.108;2023-03-15T07:14:35;97861.94;;;8.01;100.00
21960;BME280;11144;43.030;25.108;2023-03-15T07:16:08;97861.22;;;7.98;100.00
21960;BME280;11144;43.030;25.108;2023-03-15T07:17:41;97870.38;;;8.08;100.00
21960;BME280;11144;43.030;25.108;2023-03-15T07:19:15;97869.91;;;8.17;100.00
21960;BME280;11144;43.030;25.108;2023-03-15T07:20:54;97875.34;;;8.14;100.00
21960;BME280;11144;43.030;25.108;2023-03-15T07:22:27;97883.66;;;8.23;100.00
21960;BME280;11144;43.030;25.108;2023-03-15T07:24:01;97886.31;;;8.23;100.00
21960;BME280;11144;43.030;25.108;2023-03-15T07:25:35;97874.94;;;8.40;100.00
21960;BME280;11144;43.030;25.108;2023-03-15T07:27:25;97876.78;;;8.55;100.00
21960;BME280;11144;43.030;25.108;2023-03-15T07:29:00;97878.84;;;8.65;100.00
21960;BME280;11144;43.030;25.108;2023-03-15T07:30:33;97879.06;;;8.78;100.00
21960;BME280;11144;43.030;25.108;2023-03-15T07:32:06;97893.13;;;9.11;100.00
21960;BME280;11144;43.030;25.108;2023-03-15T07:33:40;97897.59;;;9.57;100.00
21960;BME280;11144;43.030;25.108;2023-03-15T07:35:13;97882.59;;;10.04;100.00
21960;BME280;11144;43.030;25.108;2023-03-15T07:36:47;97875.41;;;10.37;100.00
21960;BME280;11144;43.030;25.108;2023-03-15T07:38:22;97876.41;;;10.50;100.00
21960;BME280;11144;43.030;25.108;2023-03-15T07:39:55;97867.53;;;10.51;100.00
21960;BME280;11144;43.030;25.108;2023-03-15T07:41:29;97869.00;;;10.41;100.00
21960;BME280;11144;43.030;25.108;2023-03-15T07:43:11;97866.75;;;10.49;100.00
21960;BME280;11144;43.030;25.108;2023-03-15T07:44:46;97859.25;;;10.57;100.00
21960;BME280;11144;43.030;25.108;2023-03-15T07:46:19;97862.28;;;10.65;100.00
21960;BME280;11144;43.030;25.108;2023-03-15T07:47:52;97856.63;;;10.57;100.00
21960;BME280;11144;43.030;25.108;2023-03-15T07:49:27;97856.81;;;10.82;100.00
21960;BME280;11144;43.030;25.108;2023-03-15T07:51:01;97858.34;;;11.14;100.00
21960;BME280;11144;43.030;25.108;2023-03-15T07:52:35;97865.16;;;11.18;100.00
21960;BME280;11144;43.030;25.108;2023-03-15T07:54:08;97873.38;;;11.14;100.00
21960;BME280;11144;43.030;25.108;2023-03-15T07:55:42;97854.66;;;11.31;100.00
21960;BME280;11144;43.030;25.108;2023-03-15T07:57:18;97852.66;;;11.48;100.00
21960;BME280;11144;43.030;25.108;2023-03-15T07:58:51;97848.25;;;11.63;100.00
21960;BME280;11144;43.030;25.108;2023-03-15T08:00:26;97844.72;;;11.62;100.00
21960;BME280;11144;43.030;25.108;2023-03-15T08:01:59;97842.59;;;11.81;100.00
21960;BME280;11144;43.030;25.108;2023-03-15T08:03:34;97848.25;;;11.89;100.00
21960;BME280;11144;43.030;25.108;2023-03-15T08:05:07;97851.66;;;11.91;100.00
21960;BME280;11144;43.030;25.108;2023-03-15T08:06:40;97849.81;;;11.79;100.00
21960;BME280;11144;43.030;25.108;2023-03-15T08:08:14;97847.16;;;11.79;100.00
21960;BME280;11144;43.030;25.108;2023-03-15T08:09:47;97848.94;;;11.79;100.00
21960;BME280;11144;43.030;25.108;2023-03-15T08:11:20;97840.13;;;11.78;100.00
21960;BME280;11144;43.030;25.108;2023-03-15T08:12:53;97843.19;;;11.72;100.00
21960;BME280;11144;43.030;25.108;2023-03-15T08:14:27;97842.25;;;11.73;100.00
21960;BME280;11144;43.030;25.108;2023-03-15T08:16:04;97833.84;;;11.53;100.00
21960;BME280;11144;43.030;25.108;2023-03-15T08:17:37;97829.41;;;11.53;100.00
21960;BME280;11144;43.030;25.108;2023-03-15T08:19:11;97824.00;;;11.69;100.00
21960;BME280;11144;43.030;25.108;2023-03-15T08:20:44;97832.09;;;11.80;100.00
21960;BME280;11144;43.030;25.108;2023-03-15T08:22:18;97829.34;;;11.81;100.00
21960;BME280;11144;43.030;25.108;2023-03-15T08:23:51;97838.31;;;11.93;100.00
21960;BME280;11144;43.030;25.108;2023-03-15T08:25:24;97829.25;;;12.09;100.00
21960;BME280;11144;43.030;25.108;2023-03-15T08:26:58;97826.56;;;12.23;100.00
21960;BME280;11144;43.030;25.108;2023-03-15T08:28:31;97827.63;;;12.33;100.00
21960;BME280;11144;43.030;25.108;2023-03-15T08:30:05;97825.09;;;12.44;100.00
21960;BME280;11144;43.030;25.108;2023-03-15T08:31:40;97823.03;;;12.62;99.22
21960;BME280;11144;43.030;25.108;2023-03-15T08:33:13;97821.09;;;12.76;99.79